Time;durP1;ratioP1;P1;durP2;ratioP2;P2;SDS_P1;SDS_P2;PMS_P1;PMS_P2;Temp;Humidity;BMP_temperature;BMP_pressure;BME280_temperature;BME280_humidity;BME280_pressure;Samples;Min_cycle;Max_cycle;Signal;HPM_P1;HPM_P2
2022/11/07 00:01:33;;;;;;;1.10;1.10;;;9.90;99.90;;;;;;5056441;28;20195;-86
2022/11/07 00:04:00;;;;;;;1.33;1.23;;;10.00;99.90;;;;;;5058423;28;20204;-85
2022/11/07 00:06:27;;;;;;;0.97;0.97;;;9.90;99.90;;;;;;5061797;28;20569;-86
2022/11/07 00:08:54;;;;;;;1.43;1.10;;;10.00;99.90;;;;;;5076681;28;20535;-84
2022/11/07 00:11:23;;;;;;;1.48;1.30;;;10.00;99.90;;;;;;5081291;28;21017;-85
2022/11/07 00:13:51;;;;;;;2.10;1.10;;;10.00;99.90;;;;;;5064836;28;20201;-84
2022/11/07 00:16:19;;;;;;;1.30;1.20;;;10.00;99.90;;;;;;5062136;28;20476;-85
2022/11/07 00:18:45;;;;;;;1.00;0.90;;;10.00;99.90;;;;;;5074137;28;20203;-87
2022/11/07 00:21:12;;;;;;;1.23;0.80;;;10.00;99.90;;;;;;5058768;28;20207;-86
2022/11/07 00:23:41;;;;;;;1.33;1.33;;;9.90;99.90;;;;;;5060435;28;20212;-87
2022/11/07 00:26:10;;;;;;;1.35;1.25;;;9.90;99.90;;;;;;5076904;28;20213;-85
2022/11/07 00:28:40;;;;;;;1.45;1.35;;;9.90;99.90;;;;;;5065935;28;20701;-85
2022/11/07 00:31:09;;;;;;;2.27;1.30;;;9.90;99.90;;;;;;5072013;28;20206;-86
2022/11/07 00:33:38;;;;;;;1.40;1.30;;;9.80;99.90;;;;;;5067452;28;20992;-85
2022/11/07 00:36:05;;;;;;;1.92;1.83;;;9.80;99.90;;;;;;5075727;28;20502;-86
2022/11/07 00:38:32;;;;;;;1.67;1.05;;;9.80;99.90;;;;;;5075016;28;20208;-85
2022/11/07 00:41:01;;;;;;;1.43;1.03;;;9.90;99.90;;;;;;5058361;28;20735;-84
2022/11/07 00:43:30;;;;;;;2.55;1.25;;;9.90;99.90;;;;;;5059929;28;20455;-86
2022/11/07 00:45:57;;;;;;;3.42;1.42;;;9.90;99.90;;;;;;5077826;28;20202;-85
2022/11/07 00:48:25;;;;;;;3.38;1.90;;;9.90;99.90;;;;;;5077698;28;20253;-86
2022/11/07 00:50:53;;;;;;;1.63;1.52;;;10.00;99.90;;;;;;5078738;28;20318;-85
2022/11/07 00:53:22;;;;;;;1.47;1.37;;;10.00;99.90;;;;;;5069161;28;20604;-86
2022/11/07 00:55:49;;;;;;;1.13;1.13;;;10.10;99.90;;;;;;5058049;28;20450;-84
2022/11/07 00:58:16;;;;;;;1.55;1.45;;;10.20;99.90;;;;;;5055740;28;20453;-85
2022/11/07 01:00:45;;;;;;;1.50;1.40;;;10.10;99.90;;;;;;5063012;28;20242;-84
2022/11/07 01:05:59;;;;;;;1.47;1.37;;;9.90;99.90;;;;;;5069845;28;20577;-83
2022/11/07 01:08:27;;;;;;;2.45;1.63;;;10.00;99.90;;;;;;5059087;28;20486;-84
2022/11/07 01:10:57;;;;;;;1.70;1.47;;;9.90;99.90;;;;;;5064272;28;20407;-83
2022/11/07 01:13:37;;;;;;;;;;;;;;;;;;;;;
2022/11/07 01:16:05;;;;;;;1.23;1.00;;;10.00;99.90;;;;;;5068452;28;20211;-85
2022/11/07 01:18:32;;;;;;;1.20;1.10;;;9.90;99.90;;;;;;5057256;28;20549;-86
2022/11/07 01:21:06;;;;;;;1.77;1.40;;;10.00;99.90;;;;;;5055193;28;20290;-86
2022/11/07 01:23:33;;;;;;;1.42;1.40;;;10.10;99.90;;;;;;5058837;28;20447;-86
2022/11/07 01:26:06;;;;;;;1.77;1.33;;;10.00;99.90;;;;;;5053941;28;20217;-85
2022/11/07 01:28:34;;;;;;;1.65;1.13;;;10.00;99.90;;;;;;5053552;28;20856;-85
2022/11/07 01:31:03;;;;;;;2.65;1.77;;;10.00;99.90;;;;;;5054230;28;20232;-85
2022/11/07 01:33:33;;;;;;;1.50;1.40;;;10.00;99.90;;;;;;5034890;28;20215;-84
2022/11/07 01:36:03;;;;;;;1.63;1.55;;;10.00;99.90;;;;;;5036024;28;20208;-85
2022/11/07 01:38:30;;;;;;;1.47;1.37;;;10.00;99.90;;;;;;5073396;28;20207;-85
2022/11/07 01:43:47;;;;;;;2.10;2.00;;;10.00;99.90;;;;;;5032059;28;20481;-85
2022/11/07 01:46:22;;;;;;;1.55;1.45;;;10.00;99.90;;;;;;5042338;28;20206;-84
2022/11/07 01:48:54;;;;;;;1.50;1.40;;;10.00;99.90;;;;;;5051476;28;20226;-85
2022/11/07 01:51:25;;;;;;;1.55;1.45;;;10.00;99.90;;;;;;5052947;28;20575;-85
2022/11/07 01:53:54;;;;;;;1.48;1.38;;;9.90;99.90;;;;;;5051431;28;20219;-86
2022/11/07 01:56:30;;;;;;;1.50;1.40;;;10.00;99.90;;;;;;5059428;28;20211;-86
2022/11/07 01:59:03;;;;;;;1.70;1.33;;;10.00;99.90;;;;;;5059428;28;20235;-85
2022/11/07 02:01:35;;;;;;;1.55;1.45;;;9.80;99.90;;;;;;5062583;28;20210;-85
2022/11/07 02:04:07;;;;;;;6.43;1.65;;;9.90;99.90;;;;;;5075097;28;20252;-85
2022/11/07 02:06:45;;;;;;;1.50;1.40;;;9.90;99.90;;;;;;5066603;28;20719;-85
2022/11/07 02:09:16;;;;;;;1.80;1.45;;;9.90;99.90;;;;;;5054756;28;21073;-85
2022/11/07 02:11:44;;;;;;;1.37;1.20;;;10.00;99.90;;;;;;5064377;28;20664;-85
2022/11/07 02:14:15;;;;;;;1.65;1.55;;;10.10;99.90;;;;;;5075177;28;20491;-84
2022/11/07 02:16:43;;;;;;;2.75;1.25;;;10.10;99.90;;;;;;5065422;28;20204;-85
2022/11/07 02:19:33;;;;;;;2.20;2.10;;;10.10;99.90;;;;;;5054911;28;20230;-86
2022/11/07 02:22:22;;;;;;;3.17;1.43;;;10.20;99.90;;;;;;5055300;28;20968;-86
2022/11/07 02:24:56;;;;;;;1.23;1.23;;;10.20;99.90;;;;;;5074950;28;20464;-86
2022/11/07 02:27:41;;;;;;;1.47;1.37;;;10.20;99.90;;;;;;5060835;28;20991;-86
2022/11/07 02:30:23;;;;;;;1.87;1.50;;;10.30;99.90;;;;;;5054685;28;20477;-85
2022/11/07 02:33:14;;;;;;;1.40;1.30;;;10.30;99.90;;;;;;5071192;28;20841;-85
2022/11/07 02:38:34;;;;;;;1.33;1.23;;;10.40;99.90;;;;;;5026625;28;20447;-85
2022/11/07 02:41:13;;;;;;;1.43;1.33;;;10.50;99.90;;;;;;5036261;28;20488;-86
2022/11/07 02:43:47;;;;;;;1.63;1.40;;;10.60;99.90;;;;;;5075833;28;20514;-84
2022/11/07 02:46:15;;;;;;;2.03;1.93;;;10.60;99.90;;;;;;5067308;28;20963;-84
2022/11/07 02:48:50;;;;;;;1.63;1.53;;;10.70;99.90;;;;;;5056756;28;21010;-83
2022/11/07 02:51:18;;;;;;;1.30;1.30;;;10.80;99.90;;;;;;5055820;28;20460;-85
2022/11/07 02:53:45;;;;;;;1.83;1.73;;;10.80;99.90;;;;;;5054705;28;20451;-85
2022/11/07 02:56:23;;;;;;;1.10;1.10;;;10.80;99.90;;;;;;5055497;28;20526;-84
2022/11/07 02:58:56;;;;;;;1.30;1.20;;;10.80;99.90;;;;;;5062728;28;20532;-87
2022/11/07 03:01:29;;;;;;;2.30;1.77;;;10.80;99.90;;;;;;5075885;28;20454;-85
2022/11/07 03:03:56;;;;;;;1.40;1.30;;;10.90;99.90;;;;;;5067891;28;20495;-86
2022/11/07 03:06:43;;;;;;;1.50;1.40;;;10.80;99.90;;;;;;5055139;28;20451;-86
2022/11/07 03:09:23;;;;;;;1.50;1.03;;;10.90;99.90;;;;;;5063453;28;20486;-86
2022/11/07 03:12:27;;;;;;;1.33;1.23;;;10.90;99.90;;;;;;5074944;28;20460;-86
2022/11/07 03:17:47;;;;;;;1.37;1.33;;;10.90;99.90;;;;;;5074418;28;20462;-85
2022/11/07 03:20:25;;;;;;;1.07;0.93;;;10.90;99.90;;;;;;5069212;28;20858;-84
2022/11/07 03:22:54;;;;;;;1.33;1.23;;;11.00;99.90;;;;;;5069879;28;20581;-84
2022/11/07 03:25:52;;;;;;;4.50;1.30;;;11.00;99.90;;;;;;5055803;28;20455;-84
2022/11/07 03:28:59;;;;;;;1.43;1.27;;;10.80;99.90;;;;;;5057518;28;20478;-83
2022/11/07 03:34:23;;;;;;;1.83;1.73;;;10.80;99.90;;;;;;5027151;28;20459;-84
2022/11/07 03:40:15;;;;;;;2.80;1.73;;;10.80;99.90;;;;;;5045331;22;20491;-80
2022/11/07 03:42:42;;;;;;;1.50;1.40;;;10.80;99.90;;;;;;5077703;28;20464;-81
2022/11/07 03:45:12;;;;;;;5.40;2.80;;;10.70;99.90;;;;;;5078479;28;20450;-81
2022/11/07 03:47:41;;;;;;;4.10;1.10;;;10.70;99.90;;;;;;5078470;28;20582;-81
2022/11/07 03:50:10;;;;;;;1.60;1.30;;;10.80;99.90;;;;;;5078376;28;20991;-81
2022/11/07 03:52:37;;;;;;;1.23;1.00;;;10.70;99.90;;;;;;5078518;28;20451;-80
2022/11/07 03:55:04;;;;;;;1.70;1.33;;;10.80;99.90;;;;;;5078949;28;20461;-81
2022/11/07 03:57:31;;;;;;;1.43;1.33;;;10.90;99.90;;;;;;5077978;28;20457;-81
2022/11/07 03:59:57;;;;;;;1.40;1.40;;;10.90;99.90;;;;;;5077938;28;20477;-81
2022/11/07 04:02:26;;;;;;;1.87;1.30;;;10.90;99.90;;;;;;5077230;28;20454;-81
2022/11/07 04:04:52;;;;;;;1.80;1.70;;;11.00;99.90;;;;;;5078307;28;20458;-80
2022/11/07 04:07:19;;;;;;;1.63;1.30;;;11.00;99.90;;;;;;5077336;28;20458;-80
2022/11/07 04:09:46;;;;;;;1.50;1.27;;;10.90;99.90;;;;;;5077731;28;20474;-80
2022/11/07 04:17:42;;;;;;;1.67;1.30;;;10.80;99.90;;;;;;5057783;28;20434;-81
2022/11/07 04:20:11;;;;;;;2.63;1.33;;;10.80;99.90;;;;;;5057791;28;20513;-80
2022/11/07 04:22:37;;;;;;;1.70;1.00;;;10.80;99.90;;;;;;5076818;28;20459;-80
2022/11/07 04:25:05;;;;;;;1.40;1.30;;;10.80;99.90;;;;;;5077727;28;20817;-79
2022/11/07 04:27:43;;;;;;;2.13;1.40;;;10.70;99.90;;;;;;5077881;28;20460;-81
2022/11/07 04:30:26;;;;;;;1.93;1.60;;;10.60;99.90;;;;;;5077275;28;21059;-81
2022/11/07 04:32:56;;;;;;;1.73;1.23;;;10.50;99.90;;;;;;5077811;28;20450;-80
2022/11/07 04:35:25;;;;;;;1.13;1.10;;;10.50;99.90;;;;;;5078076;28;20461;-80
2022/11/07 04:37:52;;;;;;;2.20;1.73;;;10.60;99.90;;;;;;5077645;28;20450;-81
2022/11/07 04:40:20;;;;;;;1.17;1.17;;;10.50;99.90;;;;;;5076990;28;20486;-81
2022/11/07 04:42:48;;;;;;;2.17;1.30;;;10.40;99.90;;;;;;5077221;28;20449;-80
2022/11/07 04:45:15;;;;;;;1.83;1.73;;;10.40;99.90;;;;;;5077265;28;20966;-80
2022/11/07 04:47:42;;;;;;;1.60;1.50;;;10.60;99.90;;;;;;5077184;28;20442;-81
2022/11/07 04:50:16;;;;;;;2.17;1.63;;;10.50;99.90;;;;;;5077148;28;20564;-81
2022/11/07 04:52:43;;;;;;;1.50;1.33;;;10.50;99.90;;;;;;5077833;28;20469;-81
2022/11/07 04:55:18;;;;;;;1.60;1.50;;;10.30;99.90;;;;;;5077312;28;20487;-80
2022/11/07 04:57:45;;;;;;;1.77;1.67;;;10.40;99.90;;;;;;5077389;28;20453;-80
2022/11/07 05:00:13;;;;;;;1.70;1.40;;;10.40;99.90;;;;;;5077227;28;20473;-81
2022/11/07 05:02:40;;;;;;;1.37;1.27;;;10.40;99.90;;;;;;5077137;28;20459;-80
2022/11/07 05:05:07;;;;;;;2.07;1.33;;;10.40;99.90;;;;;;5077332;28;20458;-80
2022/11/07 05:07:35;;;;;;;1.60;1.50;;;10.40;99.90;;;;;;5076792;28;20459;-80
2022/11/07 05:10:02;;;;;;;1.50;1.33;;;10.30;99.90;;;;;;5076691;28;20736;-80
2022/11/07 05:12:29;;;;;;;1.73;1.63;;;10.30;99.90;;;;;;5077225;28;20455;-80
2022/11/07 05:14:56;;;;;;;1.90;1.27;;;10.40;99.90;;;;;;5077285;28;20454;-80
2022/11/07 05:17:23;;;;;;;1.57;1.47;;;10.40;99.90;;;;;;5076643;28;20563;-80
2022/11/07 05:19:50;;;;;;;2.43;1.80;;;10.40;99.90;;;;;;5076030;28;20474;-81
2022/11/07 05:25:02;;;;;;;1.90;1.80;;;10.20;99.90;;;;;;5077390;28;20248;-80
2022/11/07 05:27:29;;;;;;;1.37;1.27;;;10.20;99.90;;;;;;5077426;28;20461;-80
2022/11/07 05:29:55;;;;;;;2.85;1.67;;;10.20;99.90;;;;;;5077110;28;20489;-80
2022/11/07 05:32:22;;;;;;;1.93;1.40;;;10.20;99.90;;;;;;5077859;28;20203;-81
2022/11/07 05:34:49;;;;;;;1.93;1.40;;;10.10;99.90;;;;;;5078355;28;20455;-80
2022/11/07 05:37:16;;;;;;;3.80;2.00;;;10.10;99.90;;;;;;5081408;28;20454;-80
2022/11/07 05:39:43;;;;;;;1.80;1.80;;;10.10;99.90;;;;;;5081568;28;20484;-81
2022/11/07 05:42:11;;;;;;;2.78;2.55;;;10.10;99.90;;;;;;5080830;28;20459;-80
2022/11/07 05:44:37;;;;;;;1.30;1.20;;;10.10;99.90;;;;;;5081514;28;20203;-80
2022/11/07 05:47:04;;;;;;;1.77;1.67;;;10.20;99.90;;;;;;5081294;28;20213;-81
2022/11/07 05:49:31;;;;;;;1.70;1.50;;;10.20;99.90;;;;;;5080265;28;20234;-81
2022/11/07 05:51:58;;;;;;;1.70;1.60;;;10.20;99.90;;;;;;5080746;28;20202;-80
2022/11/07 05:54:26;;;;;;;1.80;1.73;;;10.30;99.90;;;;;;5080333;28;20455;-80
2022/11/07 05:56:56;;;;;;;4.57;2.00;;;10.30;99.90;;;;;;5081176;28;20461;-80
2022/11/07 05:59:24;;;;;;;2.30;2.10;;;10.30;99.90;;;;;;5080893;28;20269;-80
2022/11/07 06:01:52;;;;;;;1.43;1.33;;;10.20;99.90;;;;;;5080207;28;20202;-80
2022/11/07 06:04:19;;;;;;;1.60;1.50;;;10.10;99.90;;;;;;5081082;28;20480;-80
2022/11/07 06:06:45;;;;;;;2.07;1.53;;;10.20;99.90;;;;;;5080546;28;20821;-81
2022/11/07 06:09:12;;;;;;;2.37;2.10;;;10.20;99.90;;;;;;5080587;28;20486;-80
2022/11/07 06:11:39;;;;;;;2.57;1.70;;;10.10;99.90;;;;;;5080090;28;20454;-80
2022/11/07 06:14:06;;;;;;;1.47;1.37;;;10.20;99.90;;;;;;5060665;28;20456;-80
2022/11/07 06:16:34;;;;;;;1.30;1.20;;;10.10;99.90;;;;;;5075334;28;20459;-80
2022/11/07 06:19:01;;;;;;;1.50;1.40;;;10.20;99.90;;;;;;5078160;28;20446;-81
2022/11/07 06:21:27;;;;;;;2.00;1.33;;;10.20;99.90;;;;;;5075511;28;20854;-81
2022/11/07 06:23:54;;;;;;;2.15;1.95;;;10.20;99.90;;;;;;5089361;28;20445;-80
2022/11/07 06:26:21;;;;;;;2.55;1.95;;;10.20;99.90;;;;;;5075185;28;20204;-80
2022/11/07 06:28:48;;;;;;;2.93;2.27;;;10.20;99.90;;;;;;5067422;28;20223;-80
2022/11/07 06:31:14;;;;;;;2.10;1.83;;;10.30;99.90;;;;;;5071739;28;20895;-80
2022/11/07 06:33:43;;;;;;;3.13;1.83;;;10.40;99.90;;;;;;5071020;28;20951;-80
2022/11/07 06:36:11;;;;;;;2.10;1.90;;;10.30;99.90;;;;;;5068149;28;20447;-80
2022/11/07 06:38:40;;;;;;;3.20;1.80;;;10.30;99.90;;;;;;5072385;28;20456;-80
2022/11/07 06:41:08;;;;;;;3.90;1.70;;;10.30;99.90;;;;;;5075411;28;20494;-80
2022/11/07 06:43:35;;;;;;;5.93;2.55;;;10.30;99.90;;;;;;5074196;28;20966;-80
2022/11/07 06:46:04;;;;;;;1.63;1.53;;;10.30;99.90;;;;;;5070722;28;20205;-81
2022/11/07 06:53:01;;;;;;;8.87;2.30;;;10.50;99.90;;;;;;5064174;28;20754;-82
2022/11/07 07:06:08;;;;;;;1.93;1.83;;;10.50;99.90;;;;;;5076459;28;20439;-83
2022/11/07 07:08:34;;;;;;;1.83;1.63;;;10.60;99.90;;;;;;5080087;28;20478;-81
2022/11/07 07:11:03;;;;;;;2.20;2.00;;;10.70;99.90;;;;;;5079988;28;20469;-81
2022/11/07 07:13:30;;;;;;;3.77;1.67;;;10.80;99.90;;;;;;5079080;28;20824;-81
2022/11/07 07:15:58;;;;;;;2.13;2.03;;;10.80;99.90;;;;;;5078950;28;20553;-81
2022/11/07 07:18:25;;;;;;;6.00;3.20;;;10.80;99.90;;;;;;5089562;28;20541;-82
2022/11/07 07:20:55;;;;;;;2.60;1.77;;;11.00;99.90;;;;;;5080514;28;20513;-81
2022/11/07 07:23:23;;;;;;;1.63;1.50;;;11.00;99.90;;;;;;5080355;28;20457;-82
2022/11/07 07:25:51;;;;;;;1.63;1.53;;;11.10;99.90;;;;;;5080600;28;20458;-82
2022/11/07 07:28:18;;;;;;;1.43;1.33;;;11.10;99.90;;;;;;5080059;28;20535;-82
2022/11/07 07:30:45;;;;;;;1.93;1.60;;;11.20;99.90;;;;;;5080685;28;20859;-81
2022/11/07 07:33:12;;;;;;;1.90;1.80;;;11.20;99.90;;;;;;5080320;28;20537;-81
2022/11/07 07:35:39;;;;;;;1.60;1.50;;;11.20;99.90;;;;;;5079269;28;20482;-81
2022/11/07 07:38:06;;;;;;;1.50;1.40;;;11.30;99.90;;;;;;5080095;28;20449;-82
2022/11/07 07:40:34;;;;;;;1.70;1.60;;;11.40;99.90;;;;;;5079894;28;20527;-82
2022/11/07 07:45:44;;;;;;;2.90;1.70;;;11.60;99.90;;;;;;5077460;28;20483;-83
2022/11/07 07:48:11;;;;;;;2.00;1.47;;;11.70;99.90;;;;;;5079015;28;20446;-80
2022/11/07 07:50:42;;;;;;;4.50;2.70;;;11.80;99.90;;;;;;5078473;28;20490;-81
2022/11/07 07:53:08;;;;;;;3.83;2.13;;;11.90;99.90;;;;;;5078445;28;20454;-80
2022/11/07 07:55:37;;;;;;;4.47;2.03;;;12.00;99.90;;;;;;5078476;28;20461;-80
2022/11/07 07:58:04;;;;;;;2.17;1.97;;;12.10;99.90;;;;;;5077848;28;20466;-84
2022/11/07 08:00:31;;;;;;;2.40;2.00;;;12.10;99.90;;;;;;5070892;28;20475;-80
2022/11/07 08:03:04;;;;;;;2.83;2.17;;;12.10;99.90;;;;;;5078609;28;20451;-81
2022/11/07 08:05:32;;;;;;;4.77;2.20;;;12.10;99.90;;;;;;5078311;28;20809;-84
2022/11/07 08:07:58;;;;;;;3.90;1.70;;;12.10;99.90;;;;;;5075176;28;21051;-82
2022/11/07 08:10:25;;;;;;;5.27;2.80;;;12.10;99.90;;;;;;5080599;28;20493;-79
2022/11/07 08:12:54;;;;;;;2.37;2.17;;;12.10;99.90;;;;;;5078889;28;20788;-80
2022/11/07 08:15:21;;;;;;;6.20;2.30;;;12.20;99.90;;;;;;5073608;28;21152;-79
2022/11/07 08:20:54;;;;;;;2.83;1.80;;;12.20;99.90;;;;;;5076841;28;20800;-82
2022/11/07 08:23:21;;;;;;;4.93;2.60;;;12.10;99.90;;;;;;5070351;28;20447;-82
2022/11/07 08:28:46;;;;;;;4.20;2.07;;;12.10;99.90;;;;;;5068569;28;20935;-83
2022/11/07 08:31:26;;;;;;;3.97;1.83;;;12.10;99.90;;;;;;5075615;28;20473;-83
2022/11/07 08:34:00;;;;;;;5.30;2.80;;;12.10;99.90;;;;;;5075548;28;20446;-82
2022/11/07 08:36:27;;;;;;;5.90;2.20;;;12.10;99.90;;;;;;5075635;28;20442;-84
2022/11/07 08:38:55;;;;;;;8.13;2.80;;;12.10;99.90;;;;;;5075010;28;20449;-84
2022/11/07 08:41:25;;;;;;;2.07;1.97;;;12.20;99.90;;;;;;5075408;28;20489;-84
2022/11/07 08:44:07;;;;;;;2.50;2.23;;;12.20;99.90;;;;;;5075064;28;20450;-84
2022/11/07 08:46:40;;;;;;;2.73;1.97;;;12.30;99.90;;;;;;5074166;28;20455;-84
2022/11/07 08:49:07;;;;;;;1.93;1.73;;;12.20;99.90;;;;;;5075623;28;20489;-82
2022/11/07 08:51:37;;;;;;;2.53;1.70;;;12.30;99.90;;;;;;5073798;28;20450;-83
2022/11/07 08:54:05;;;;;;;6.47;2.13;;;12.30;99.90;;;;;;5067407;28;20971;-82
2022/11/07 08:57:02;;;;;;;2.83;1.90;;;12.40;99.90;;;;;;5074354;28;20541;-84
2022/11/07 09:00:14;;;;;;;3.57;1.80;;;12.50;99.90;;;;;;5070359;28;20463;-83
2022/11/07 09:02:42;;;;;;;5.03;1.90;;;12.50;99.90;;;;;;5065279;28;20464;-83
2022/11/07 09:07:59;;;;;;;3.90;2.90;;;12.60;99.90;;;;;;5018807;28;20522;-80
2022/11/07 09:10:26;;;;;;;5.17;1.80;;;12.70;99.90;;;;;;5063954;28;20489;-83
2022/11/07 09:12:53;;;;;;;2.20;1.97;;;12.70;99.90;;;;;;5072536;28;20450;-83
2022/11/07 09:15:20;;;;;;;3.80;2.33;;;12.80;99.90;;;;;;5075077;28;20473;-83
2022/11/07 09:17:50;;;;;;;2.80;1.63;;;12.90;99.90;;;;;;5074351;28;20501;-84
2022/11/07 09:20:18;;;;;;;2.40;2.00;;;13.00;99.90;;;;;;5073739;28;20482;-83
2022/11/07 09:22:45;;;;;;;4.80;1.83;;;13.00;99.90;;;;;;5074266;28;20509;-81
2022/11/07 09:25:15;;;;;;;3.57;2.13;;;13.10;99.90;;;;;;5076026;28;20451;-84
2022/11/07 09:27:42;;;;;;;3.13;2.37;;;13.10;99.90;;;;;;5076747;28;20479;-84
2022/11/07 09:30:10;;;;;;;3.90;1.97;;;13.10;99.90;;;;;;5076018;28;20491;-84
2022/11/07 09:32:36;;;;;;;1.77;1.43;;;13.30;99.90;;;;;;5071128;28;20456;-83
2022/11/07 09:35:07;;;;;;;6.73;2.03;;;13.40;99.90;;;;;;5072059;28;20463;-83
2022/11/07 09:37:38;;;;;;;2.07;1.37;;;13.40;99.90;;;;;;5071064;28;20457;-83
2022/11/07 09:40:16;;;;;;;2.50;1.70;;;13.40;99.90;;;;;;5074872;28;20483;-86
2022/11/07 09:42:55;;;;;;;2.27;1.50;;;13.40;99.90;;;;;;5075921;28;20454;-86
2022/11/07 09:45:21;;;;;;;1.90;1.00;;;13.60;99.90;;;;;;5076660;28;20459;-86
2022/11/07 09:47:53;;;;;;;3.33;1.50;;;13.60;99.90;;;;;;5075826;28;20822;-86
2022/11/07 09:50:28;;;;;;;3.53;2.17;;;13.60;99.90;;;;;;5077092;28;20504;-86
2022/11/07 09:53:01;;;;;;;6.33;2.13;;;13.60;99.90;;;;;;5076923;28;20454;-86
2022/11/07 09:55:32;;;;;;;1.20;1.10;;;13.70;99.90;;;;;;5076842;28;20463;-86
2022/11/07 09:58:02;;;;;;;2.93;1.47;;;13.60;99.90;;;;;;5087953;28;20431;-83
2022/11/07 10:00:32;;;;;;;3.20;1.50;;;13.60;99.90;;;;;;5075278;28;21016;-85
2022/11/07 10:03:02;;;;;;;2.67;1.53;;;13.80;99.90;;;;;;5074256;28;20447;-84
2022/11/07 10:05:49;;;;;;;2.00;1.60;;;13.70;99.90;;;;;;5070810;28;20451;-86
2022/11/07 10:08:26;;;;;;;4.13;1.60;;;13.70;99.90;;;;;;5073675;28;20444;-84
2022/11/07 10:11:08;;;;;;;2.17;1.50;;;13.60;99.90;;;;;;5073926;28;20483;-84
2022/11/07 10:13:57;;;;;;;3.17;1.73;;;13.70;99.90;;;;;;5073372;28;20444;-84
2022/11/07 10:16:37;;;;;;;2.73;1.50;;;13.80;99.90;;;;;;5073862;28;20461;-83
2022/11/07 10:19:31;;;;;;;1.93;1.40;;;13.90;99.90;;;;;;5036929;28;20467;-84
2022/11/07 10:22:34;;;;;;;5.60;1.57;;;13.90;99.90;;;;;;5054142;28;20464;-83
2022/11/07 10:25:21;;;;;;;3.57;1.77;;;13.90;99.90;;;;;;5055071;28;20529;-83
2022/11/07 10:28:00;;;;;;;3.10;1.80;;;13.90;99.90;;;;;;5056586;28;20482;-83
2022/11/07 10:31:27;;;;;;;1.40;1.30;;;13.90;99.90;;;;;;5056867;28;20985;-84
2022/11/07 10:34:16;;;;;;;2.17;1.60;;;13.80;99.90;;;;;;5056716;28;20460;-84
2022/11/07 10:36:49;;;;;;;3.40;1.50;;;14.00;99.90;;;;;;5057084;28;20807;-84
2022/11/07 10:45:36;;;;;;;4.17;1.60;;;14.20;99.90;;;;;;5056878;28;20456;-83
2022/11/07 10:50:59;;;;;;;2.37;1.60;;;14.30;99.90;;;;;;5057704;28;20514;-84
2022/11/07 10:56:23;;;;;;;2.73;1.73;;;14.50;99.90;;;;;;5056038;28;20452;-84
2022/11/07 10:59:16;;;;;;;3.60;1.37;;;14.50;99.90;;;;;;5056534;28;20980;-83
2022/11/07 11:02:17;;;;;;;4.67;2.27;;;14.70;99.90;;;;;;5056372;28;20457;-83
2022/11/07 11:07:46;;;;;;;1.87;1.77;;;14.80;99.90;;;;;;5056125;28;20570;-83
2022/11/07 11:10:23;;;;;;;2.70;1.70;;;14.70;99.90;;;;;;5055976;28;20492;-84
2022/11/07 11:13:31;;;;;;;1.50;1.40;;;14.70;99.90;;;;;;5055799;28;20878;-84
2022/11/07 11:16:25;;;;;;;5.27;1.67;;;14.70;99.90;;;;;;5056903;28;20479;-83
2022/11/07 11:19:22;;;;;;;1.50;1.40;;;14.80;99.90;;;;;;5055359;28;20496;-84
2022/11/07 11:21:59;;;;;;;3.47;1.23;;;14.70;99.90;;;;;;5042076;28;20477;-84
2022/11/07 11:24:39;;;;;;;1.73;1.00;;;14.80;99.90;;;;;;5056013;28;20452;-84
2022/11/07 11:27:16;;;;;;;1.63;1.53;;;14.90;99.90;;;;;;5053592;28;20462;-84
2022/11/07 11:33:02;;;;;;;1.40;1.00;;;15.80;99.90;;;;;;5054891;28;20491;-84
2022/11/07 11:39:31;;;;;;;3.50;1.13;;;16.60;99.90;;;;;;5050501;28;20978;-83
2022/11/07 11:46:09;;;;;;;2.43;1.10;;;16.60;99.90;;;;;;5056200;28;20814;-83
2022/11/07 11:49:21;;;;;;;1.50;1.40;;;16.80;99.90;;;;;;5058364;28;20493;-84
2022/11/07 11:55:16;;;;;;;1.33;1.23;;;16.20;99.90;;;;;;5055107;28;20810;-84
2022/11/07 12:01:03;;;;;;;2.30;1.30;;;15.90;99.90;;;;;;5053454;28;20466;-83
2022/11/07 12:10:17;;;;;;;1.00;0.80;;;15.80;99.90;;;;;;5041510;28;20485;-83
2022/11/07 12:13:13;;;;;;;1.70;1.10;;;15.80;99.90;;;;;;5055168;28;20484;-83
2022/11/07 12:16:18;;;;;;;1.90;0.63;;;15.60;99.90;;;;;;5054093;28;20462;-83
2022/11/07 12:19:19;;;;;;;4.10;1.00;;;15.70;99.90;;;;;;5049393;28;20514;-83
2022/11/07 12:22:12;;;;;;;1.37;0.80;;;16.10;99.90;;;;;;5054731;28;20456;-84
2022/11/07 12:25:26;;;;;;;2.63;1.37;;;16.60;99.70;;;;;;5053802;28;20947;-84
2022/11/07 12:31:39;;;;;;;3.37;2.33;;;16.50;98.10;;;;;;5050462;28;20814;-83
2022/11/07 12:34:28;;;;;;;1.27;0.90;;;16.10;99.40;;;;;;5054378;28;20514;-84
2022/11/07 12:37:19;;;;;;;7.30;1.60;;;16.10;99.60;;;;;;5053917;28;20510;-83
2022/11/07 12:40:20;;;;;;;2.40;1.43;;;16.10;99.10;;;;;;5037645;28;20469;-83
2022/11/07 12:43:37;;;;;;;1.23;1.10;;;16.00;99.00;;;;;;5068482;28;20460;-83
2022/11/07 12:56:21;;;;;;;1.23;1.10;;;15.80;99.60;;;;;;5054332;28;20491;-84
2022/11/07 12:59:26;;;;;;;1.50;0.90;;;15.80;99.10;;;;;;5053871;28;20444;-84
2022/11/07 13:02:42;;;;;;;2.30;1.13;;;15.70;99.50;;;;;;5053513;28;20515;-83
2022/11/07 13:05:43;;;;;;;2.30;0.80;;;15.50;99.20;;;;;;4940379;28;20481;-83
2022/11/07 13:09:07;;;;;;;0.80;0.80;;;15.50;99.60;;;;;;5053426;28;20461;-84
2022/11/07 13:11:47;;;;;;;1.17;0.97;;;15.50;99.70;;;;;;5051906;28;20488;-83
2022/11/07 13:14:53;;;;;;;1.43;1.00;;;15.60;99.90;;;;;;5053932;28;20450;-84
2022/11/07 13:17:51;;;;;;;1.10;1.00;;;15.50;99.90;;;;;;5052573;28;20463;-83
2022/11/07 13:34:46;;;;;;;2.13;1.20;;;16.40;98.90;;;;;;4991280;28;20439;-83
2022/11/07 13:37:54;;;;;;;2.00;1.23;;;16.70;98.70;;;;;;5007903;28;20528;-83
2022/11/07 13:44:22;;;;;;;3.30;1.03;;;17.30;97.80;;;;;;5039401;28;20977;-83
2022/11/07 13:54:26;;;;;;;1.07;0.97;;;17.50;96.60;;;;;;5046295;28;20796;-84
2022/11/07 14:41:30;;;;;;;1.27;0.80;;;16.30;98.30;;;;;;4924295;28;20488;-83
2022/11/07 14:44:20;;;;;;;1.33;1.20;;;16.20;98.70;;;;;;4968577;28;20459;-83
2022/11/07 14:46:52;;;;;;;1.80;1.13;;;16.00;98.90;;;;;;4965035;28;21006;-83
2022/11/07 14:49:42;;;;;;;2.00;1.00;;;16.00;99.10;;;;;;5022171;28;20525;-83
2022/11/07 15:05:44;;;;;;;1.67;1.43;;;15.40;99.60;;;;;;5108918;28;20441;-82
2022/11/07 15:15:13;;;;;;;1.60;1.50;;;15.30;99.90;;;;;;5110457;28;20862;-82
2022/11/07 15:18:26;;;;;;;1.73;1.30;;;15.20;99.70;;;;;;5110160;28;20540;-82
2022/11/07 15:25:24;;;;;;;2.67;1.50;;;14.90;99.90;;;;;;5110314;28;20954;-83
2022/11/07 15:31:36;;;;;;;1.40;0.90;;;14.70;99.90;;;;;;5105519;28;20516;-83
2022/11/07 15:34:26;;;;;;;2.93;1.57;;;14.60;99.90;;;;;;5072194;28;20544;-83
2022/11/07 15:42:08;;;;;;;1.50;1.07;;;14.50;99.90;;;;;;5104420;28;20476;-85
2022/11/07 15:44:35;;;;;;;13.77;2.07;;;14.50;99.90;;;;;;5105696;28;20447;-86
2022/11/07 15:47:02;;;;;;;3.70;1.97;;;14.50;99.90;;;;;;5105652;28;20541;-86
2022/11/07 15:49:30;;;;;;;1.93;1.30;;;14.50;99.90;;;;;;5106360;28;20993;-86
2022/11/07 15:51:58;;;;;;;3.93;2.23;;;14.40;99.90;;;;;;5106284;28;20474;-86
2022/11/07 15:54:26;;;;;;;3.10;1.50;;;14.30;99.90;;;;;;5106281;28;20460;-85
2022/11/07 15:56:55;;;;;;;4.63;1.70;;;14.30;99.90;;;;;;5106756;28;20450;-85
2022/11/07 15:59:23;;;;;;;1.60;1.50;;;14.20;99.90;;;;;;5106989;28;20483;-86
2022/11/07 16:01:50;;;;;;;2.43;1.60;;;14.10;99.90;;;;;;5106534;28;20501;-85
2022/11/07 16:04:16;;;;;;;2.80;1.73;;;14.10;99.90;;;;;;5106446;28;20447;-85
2022/11/07 16:06:43;;;;;;;3.03;2.00;;;14.10;99.90;;;;;;5106931;28;20450;-85
2022/11/07 16:09:15;;;;;;;1.80;1.70;;;14.00;99.90;;;;;;5105997;28;20507;-86
2022/11/07 16:11:41;;;;;;;2.30;2.03;;;14.00;99.90;;;;;;5106332;28;20462;-86
2022/11/07 16:14:13;;;;;;;3.43;3.13;;;13.90;99.90;;;;;;5106142;28;20782;-85
2022/11/07 16:16:41;;;;;;;7.10;6.27;;;13.80;99.90;;;;;;5106277;28;20955;-86
2022/11/07 16:19:13;;;;;;;6.57;5.87;;;13.70;99.90;;;;;;5104760;28;20557;-85
2022/11/07 16:21:40;;;;;;;6.17;3.10;;;13.70;99.90;;;;;;5105695;28;20463;-85
2022/11/07 16:24:07;;;;;;;4.30;3.17;;;13.70;99.90;;;;;;5106287;28;20499;-85
2022/11/07 16:26:37;;;;;;;3.73;2.80;;;13.60;99.90;;;;;;5106729;28;20450;-85
2022/11/07 16:29:03;;;;;;;2.60;2.20;;;13.40;99.90;;;;;;5105845;28;20446;-86
2022/11/07 16:31:32;;;;;;;2.33;2.13;;;13.30;99.90;;;;;;5105802;28;20469;-86
2022/11/07 16:33:58;;;;;;;2.70;2.00;;;13.30;99.90;;;;;;5106273;28;20499;-85
2022/11/07 16:36:30;;;;;;;2.30;1.80;;;13.20;99.90;;;;;;5105551;28;20438;-85
2022/11/07 16:38:56;;;;;;;2.43;1.93;;;13.30;99.90;;;;;;5105297;28;20482;-85
2022/11/07 16:41:23;;;;;;;2.50;2.13;;;13.20;99.90;;;;;;5105058;28;20491;-85
2022/11/07 16:43:51;;;;;;;2.00;1.90;;;13.10;99.90;;;;;;5102866;28;20456;-85
2022/11/07 16:46:21;;;;;;;2.17;1.97;;;13.10;99.90;;;;;;5105712;28;20449;-85
2022/11/07 16:48:50;;;;;;;3.57;2.47;;;13.10;99.90;;;;;;5105363;28;21023;-85
2022/11/07 16:51:19;;;;;;;4.27;2.33;;;13.00;99.90;;;;;;5105976;28;20493;-85